Bei Facebook empfehlenBei Twitter postenGoogle plusPinterest

Das Wetter im Erzgebirge am 24.12.2016

Wetter und Klima am 24.12.2016 Holzhau im Erzgebirge (630m ü.NN)
Letzte gemessene Temperatur und Uhrzeit der Messung23:45:00 Uhr2.30 °C
Temperatur (Maximum / Höchstwert) und Uhrzeit der Messung23:45:00 Uhr2.30 °C
Temperatur (Minimum / Tiefstwert) und Uhrzeit der Messung06:00:00-2.40 °C
Errechneter Absolutwert der Temperaturschwankungen zwischen Tmin und Tmax des Tages4.70 K
Errechnete Tagesmitteltemperatur0.57500 °C
Gesamt - Niederschlag des Tages (in flüssiger Form)0.51 Liter / m²
Luftdruck (Maximum / Höchstwert) und Zeitpunkt der Messung00:00:00 Uhr1023.20 hPa
Luftdruck (Minimum / Tiefstwert) und Zeitpunkt der Messung17:15:00 Uhr1018.00 hPa
Errechneter Absolutwert der Luftdruckschwankungen des Tages5.20 hPa
Höchste gemessene Windgeschwindigkeit und Uhrzeit der Messung23:45:00 Uhr0.00 km/h
Errechnete Windhäufigkeit in Relation zu den Messwerten des Tages0.00000 %
Niedrigste Windkühle (Windchill) und Zeitpunkt der Messung06:00:00 Uhr-2.40 °C
Taupunkt (Maximum / Höchstwert) und Uhrzeit der Messung16:00:00 Uhr1.90 °C
Taupunkt (Minimum / Tiefstwert) und Uhrzeit der Messung06:00:00-3.00 °C
Anzahl der automatisch eingelesenen Messwerte 96

Detaillierte Wetter- und Klima- Messwerte für den 24.12.2016 in Holzhau im Erzgebirge (630m ü.NN)
ZeitTemperaturLuftdruckRel. LuftfeuchteWindWindrichtungWindchillTaupunktNiederschlag l/m²
23:45:002.30 °C1018.50 hPa91.00 %1.00 °C0.51
23:30:002.20 °C1018.50 hPa91.00 %0.90 °C0.51
23:15:002.10 °C1018.50 hPa91.00 %0.80 °C0.51
23:00:002.10 °C1018.50 hPa91.00 %0.80 °C0.51
22:45:002.10 °C1018.60 hPa91.00 %0.80 °C0.51
22:30:002.10 °C1018.60 hPa91.00 %0.80 °C0.51
22:15:002.10 °C1018.70 hPa92.00 %0.90 °C0.51
22:00:002.10 °C1018.80 hPa92.00 %0.90 °C0.51
21:45:002.10 °C1018.90 hPa92.00 %0.90 °C0.51
21:30:002.10 °C1019.10 hPa92.00 %0.90 °C0.51
21:15:002.00 °C1019.00 hPa93.00 %1.00 °C0.51
21:00:001.90 °C1019.30 hPa93.00 %0.90 °C0.51
20:45:001.90 °C1019.40 hPa94.00 %1.00 °C0.51
20:30:001.90 °C1019.30 hPa94.00 %1.00 °C0.51
20:15:002.10 °C1019.30 hPa94.00 %1.20 °C0.51
20:00:002.10 °C1019.30 hPa95.00 %1.40 °C0.51
19:45:002.10 °C1019.10 hPa95.00 %1.40 °C0.51
19:30:002.10 °C1019.10 hPa95.00 %1.40 °C0.51
19:15:002.10 °C1019.20 hPa96.00 %1.50 °C0.51
19:00:002.10 °C1018.80 hPa96.00 %1.50 °C0.51
18:45:002.10 °C1019.00 hPa96.00 %1.50 °C0.51
18:30:002.10 °C1018.80 hPa96.00 %1.50 °C0.51
18:15:002.10 °C1018.80 hPa97.00 %1.70 °C0.51
18:00:001.90 °C1018.70 hPa97.00 %1.50 °C0.51
17:45:001.80 °C1018.70 hPa97.00 %1.40 °C0.51
17:30:001.80 °C1018.40 hPa97.00 %1.40 °C0.51
17:15:002.10 °C1018.00 hPa97.00 %1.70 °C0.51
17:00:002.10 °C1018.20 hPa97.00 %1.70 °C0.51
16:45:002.10 °C1018.10 hPa97.00 %1.70 °C0.51
16:30:002.10 °C1018.40 hPa97.00 %1.70 °C0.51
16:15:002.20 °C1018.30 hPa97.00 %1.80 °C0.51
16:00:002.30 °C1018.10 hPa97.00 %1.90 °C0.51
15:45:002.30 °C1018.30 hPa97.00 %1.90 °C0.51
15:30:002.20 °C1018.10 hPa97.00 %1.80 °C0.51
15:15:002.10 °C1018.10 hPa97.00 %1.70 °C0.51
15:00:002.10 °C1018.20 hPa97.00 %1.70 °C0.51
14:45:002.20 °C1018.50 hPa97.00 %1.80 °C0.51
14:30:002.20 °C1018.30 hPa97.00 %1.80 °C0.51
14:15:002.30 °C1018.30 hPa97.00 %1.90 °C0.51
14:00:002.20 °C1018.40 hPa97.00 %1.80 °C0.51
13:45:002.10 °C1018.30 hPa97.00 %1.70 °C0.51
13:30:002.10 °C1018.30 hPa97.00 %1.70 °C0.51
13:15:002.00 °C1018.60 hPa97.00 %1.60 °C0.51
13:00:001.90 °C1018.50 hPa97.00 %1.50 °C 
12:45:001.90 °C1018.40 hPa97.00 %1.50 °C 
12:30:001.90 °C1018.40 hPa97.00 %1.50 °C 
12:15:001.80 °C1018.40 hPa97.00 %1.40 °C 
12:00:001.80 °C1018.60 hPa97.00 %1.40 °C 
11:45:001.70 °C1018.80 hPa97.00 %1.30 °C 
11:30:001.60 °C1018.70 hPa97.00 %1.20 °C 
11:15:001.30 °C1018.80 hPa97.00 %0.90 °C 
11:00:001.30 °C1019.20 hPa97.00 %0.90 °C 
10:45:001.30 °C1019.20 hPa97.00 %0.90 °C 
10:30:001.40 °C1019.50 hPa97.00 %1.00 °C 
10:15:001.40 °C1019.60 hPa97.00 %1.00 °C 
10:00:001.30 °C1019.90 hPa97.00 %0.90 °C 
09:45:001.30 °C1019.70 hPa97.00 %0.90 °C 
09:30:001.20 °C1019.70 hPa97.00 %0.80 °C 
09:15:000.90 °C1019.90 hPa97.00 %0.50 °C 
09:00:000.40 °C1019.70 hPa97.00 %0.00 °C 
08:45:00-0.10 °C1019.50 hPa97.00 %-0.60 °C 
08:30:00-0.40 °C1019.60 hPa97.00 %-0.90 °C 
08:15:00-0.90 °C1019.70 hPa96.00 %-1.50 °C 
08:00:00-1.10 °C1019.70 hPa96.00 %-1.70 °C 
07:45:00-1.20 °C1019.70 hPa96.00 %-1.80 °C 
07:30:00-1.50 °C1019.60 hPa96.00 %-2.10 °C 
07:15:00-1.70 °C1019.70 hPa96.00 %-2.30 °C 
07:00:00-1.90 °C1019.60 hPa96.00 %-2.50 °C 
06:45:00-2.20 °C1019.60 hPa96.00 %-2.80 °C 
06:30:00-2.20 °C1019.70 hPa96.00 %-2.80 °C 
06:15:00-2.20 °C1019.50 hPa96.00 %-2.80 °C 
06:00:00-2.40 °C1019.70 hPa96.00 %-3.00 °C 
05:45:00-2.40 °C1019.70 hPa96.00 %-3.00 °C 
05:30:00-2.10 °C1019.90 hPa96.00 %-2.70 °C 
05:15:00-1.60 °C1020.10 hPa96.00 %-2.20 °C 
05:00:00-1.40 °C1020.10 hPa96.00 %-2.00 °C 
04:45:00-1.40 °C1020.20 hPa96.00 %-2.00 °C 
04:30:00-1.30 °C1020.10 hPa96.00 %-1.90 °C 
04:15:00-1.30 °C1020.10 hPa96.00 %-1.90 °C 
04:00:00-1.10 °C1020.90 hPa96.00 %-1.70 °C 
03:45:00-1.20 °C1021.10 hPa96.00 %-1.80 °C 
03:30:00-1.30 °C1021.10 hPa96.00 %-1.90 °C 
03:15:00-1.50 °C1021.50 hPa96.00 %-2.10 °C 
03:00:00-1.70 °C1021.90 hPa96.00 %-2.30 °C 
02:45:00-1.90 °C1022.20 hPa96.00 %-2.50 °C 
02:30:00-1.90 °C1022.40 hPa96.00 %-2.50 °C 
02:15:00-1.90 °C1022.40 hPa96.00 %-2.50 °C 
02:00:00-1.90 °C1022.30 hPa96.00 %-2.50 °C 
01:45:00-1.90 °C1021.90 hPa96.00 %-2.50 °C 
01:30:00-1.90 °C1022.00 hPa96.00 %-2.50 °C 
01:15:00-1.70 °C1022.00 hPa96.00 %-2.30 °C 
01:00:00-1.80 °C1021.60 hPa96.00 %-2.40 °C 
00:45:00-1.90 °C1022.10 hPa96.00 %-2.50 °C 
00:30:00-2.10 °C1022.60 hPa96.00 %-2.70 °C 
00:15:00-2.20 °C1023.00 hPa96.00 %-2.80 °C 
00:00:00-2.10 °C1023.20 hPa96.00 %-2.70 °C 

Permanenter Link zu dieser Seite: Wetter im Erzgebirge am 24.12.2016
Performance-Info: Die Erstellung der Seite / Statistik(en) / Tabelle(n) erforderte 5 Datenbankserver-Abfrage(n) und dauerte 96 Millisekunden. (Dieser Messwert ist von der Gesamt-Auslastung des Servers abhängig.)
Erzgebirge - Wetter | Erzgebirge - Wetter (Mobilgeräte) | Komplette Klimadatenbank